sensor_id;sensor_type;location;lat;lon;timestamp;temperature;humidity
51739;DHT22;37815;52.692;6.226;2023-05-20T00:01:09;16.30;78.20
51739;DHT22;37815;52.692;6.226;2023-05-20T00:06:10;16.30;79.00
51739;DHT22;37815;52.692;6.226;2023-05-20T00:11:11;16.30;78.50
51739;DHT22;37815;52.692;6.226;2023-05-20T00:16:11;16.30;78.50
51739;DHT22;37815;52.692;6.226;2023-05-20T00:21:12;16.30;78.60
51739;DHT22;37815;52.692;6.226;2023-05-20T00:26:12;16.20;78.70
51739;DHT22;37815;52.692;6.226;2023-05-20T00:31:13;16.20;78.80
51739;DHT22;37815;52.692;6.226;2023-05-20T00:36:13;16.20;78.90
51739;DHT22;37815;52.692;6.226;2023-05-20T00:41:14;16.10;79.50
51739;DHT22;37815;52.692;6.226;2023-05-20T00:46:15;16.10;79.10
51739;DHT22;37815;52.692;6.226;2023-05-20T00:51:16;16.10;79.20
51739;DHT22;37815;52.692;6.226;2023-05-20T00:56:16;16.00;79.20
51739;DHT22;37815;52.692;6.226;2023-05-20T01:01:17;16.00;79.40
51739;DHT22;37815;52.692;6.226;2023-05-20T01:06:18;16.00;79.50
51739;DHT22;37815;52.692;6.226;2023-05-20T01:11:36;16.00;79.60
51739;DHT22;37815;52.692;6.226;2023-05-20T01:16:38;15.90;79.90
51739;DHT22;37815;52.692;6.226;2023-05-20T01:21:40;16.00;79.80
51739;DHT22;37815;52.692;6.226;2023-05-20T01:26:41;16.00;79.90
51739;DHT22;37815;52.692;6.226;2023-05-20T01:31:42;15.80;79.90
51739;DHT22;37815;52.692;6.226;2023-05-20T01:36:44;15.80;80.00
51739;DHT22;37815;52.692;6.226;2023-05-20T01:41:46;15.80;80.10
51739;DHT22;37815;52.692;6.226;2023-05-20T01:46:48;15.80;80.20
51739;DHT22;37815;52.692;6.226;2023-05-20T01:51:49;15.80;80.30
51739;DHT22;37815;52.692;6.226;2023-05-20T01:56:50;15.80;80.30
51739;DHT22;37815;52.692;6.226;2023-05-20T02:01:51;15.70;80.40
51739;DHT22;37815;52.692;6.226;2023-05-20T02:06:51;15.70;80.40
51739;DHT22;37815;52.692;6.226;2023-05-20T02:11:52;15.60;80.50
51739;DHT22;37815;52.692;6.226;2023-05-20T02:16:53;15.70;80.70
51739;DHT22;37815;52.692;6.226;2023-05-20T02:21:53;15.60;80.60
51739;DHT22;37815;52.692;6.226;2023-05-20T02:26:54;15.60;80.70
51739;DHT22;37815;52.692;6.226;2023-05-20T02:31:57;15.60;80.80
51739;DHT22;37815;52.692;6.226;2023-05-20T02:36:57;15.70;80.90
51739;DHT22;37815;52.692;6.226;2023-05-20T02:41:58;15.60;81.00
51739;DHT22;37815;52.692;6.226;2023-05-20T02:46:58;15.50;81.00
51739;DHT22;37815;52.692;6.226;2023-05-20T02:51:59;15.50;81.00
51739;DHT22;37815;52.692;6.226;2023-05-20T02:57:00;15.50;81.10
51739;DHT22;37815;52.692;6.226;2023-05-20T03:02:01;15.50;81.20
51739;DHT22;37815;52.692;6.226;2023-05-20T03:07:03;15.50;81.30
51739;DHT22;37815;52.692;6.226;2023-05-20T03:12:03;15.80;81.50
51739;DHT22;37815;52.692;6.226;2023-05-20T03:17:04;15.40;81.40
51739;DHT22;37815;52.692;6.226;2023-05-20T03:22:05;15.40;81.50
51739;DHT22;37815;52.692;6.226;2023-05-20T03:27:05;15.40;81.50
51739;DHT22;37815;52.692;6.226;2023-05-20T03:32:06;15.40;82.20
51739;DHT22;37815;52.692;6.226;2023-05-20T03:37:07;15.40;81.70
51739;DHT22;37815;52.692;6.226;2023-05-20T03:42:07;15.40;81.70
51739;DHT22;37815;52.692;6.226;2023-05-20T03:47:08;15.30;81.80
51739;DHT22;37815;52.692;6.226;2023-05-20T03:52:09;15.30;81.80
51739;DHT22;37815;52.692;6.226;2023-05-20T03:57:10;15.30;81.90
51739;DHT22;37815;52.692;6.226;2023-05-20T04:02:11;15.30;82.00
51739;DHT22;37815;52.692;6.226;2023-05-20T04:07:11;15.30;82.00
51739;DHT22;37815;52.692;6.226;2023-05-20T04:12:12;15.30;82.10
51739;DHT22;37815;52.692;6.226;2023-05-20T04:17:13;15.30;82.10
51739;DHT22;37815;52.692;6.226;2023-05-20T04:22:13;15.30;82.20
51739;DHT22;37815;52.692;6.226;2023-05-20T04:27:14;15.20;82.10
51739;DHT22;37815;52.692;6.226;2023-05-20T04:32:17;15.30;82.20
51739;DHT22;37815;52.692;6.226;2023-05-20T04:37:18;15.30;82.30
51739;DHT22;37815;52.692;6.226;2023-05-20T04:42:19;15.30;82.30
51739;DHT22;37815;52.692;6.226;2023-05-20T04:47:21;15.20;82.30
51739;DHT22;37815;52.692;6.226;2023-05-20T04:52:25;15.20;82.40
51739;DHT22;37815;52.692;6.226;2023-05-20T04:57:26;15.30;82.60
51739;DHT22;37815;52.692;6.226;2023-05-20T05:02:27;15.20;83.10
51739;DHT22;37815;52.692;6.226;2023-05-20T05:07:28;15.30;82.60
51739;DHT22;37815;52.692;6.226;2023-05-20T05:12:28;15.20;82.60
51739;DHT22;37815;52.692;6.226;2023-05-20T05:17:29;15.20;82.70
51739;DHT22;37815;52.692;6.226;2023-05-20T05:22:29;15.20;82.70
51739;DHT22;37815;52.692;6.226;2023-05-20T05:27:30;15.10;82.70
51739;DHT22;37815;52.692;6.226;2023-05-20T05:32:31;15.20;82.90
51739;DHT22;37815;52.692;6.226;2023-05-20T05:37:32;15.20;82.70
51739;DHT22;37815;52.692;6.226;2023-05-20T05:42:34;15.20;82.70
51739;DHT22;37815;52.692;6.226;2023-05-20T05:47:34;15.20;82.70
51739;DHT22;37815;52.692;6.226;2023-05-20T05:52:35;15.20;82.70
51739;DHT22;37815;52.692;6.226;2023-05-20T05:57:36;15.20;82.70
51739;DHT22;37815;52.692;6.226;2023-05-20T06:02:36;15.20;82.90
51739;DHT22;37815;52.692;6.226;2023-05-20T06:07:37;15.30;83.10
51739;DHT22;37815;52.692;6.226;2023-05-20T06:12:38;15.20;83.00
51739;DHT22;37815;52.692;6.226;2023-05-20T06:17:38;15.30;83.10
51739;DHT22;37815;52.692;6.226;2023-05-20T06:22:39;15.30;83.10
51739;DHT22;37815;52.692;6.226;2023-05-20T06:27:40;15.30;83.10
51739;DHT22;37815;52.692;6.226;2023-05-20T06:32:40;15.30;83.10
51739;DHT22;37815;52.692;6.226;2023-05-20T06:37:41;15.30;83.00
51739;DHT22;37815;52.692;6.226;2023-05-20T06:42:41;15.30;83.20
51739;DHT22;37815;52.692;6.226;2023-05-20T06:47:42;15.30;83.20
51739;DHT22;37815;52.692;6.226;2023-05-20T06:52:42;15.30;83.30
51739;DHT22;37815;52.692;6.226;2023-05-20T06:57:43;15.30;83.30
51739;DHT22;37815;52.692;6.226;2023-05-20T07:02:44;15.30;83.40
51739;DHT22;37815;52.692;6.226;2023-05-20T07:07:45;15.40;83.40
51739;DHT22;37815;52.692;6.226;2023-05-20T07:12:46;15.40;83.40
51739;DHT22;37815;52.692;6.226;2023-05-20T07:17:46;15.40;83.40
51739;DHT22;37815;52.692;6.226;2023-05-20T07:22:47;15.40;83.60
51739;DHT22;37815;52.692;6.226;2023-05-20T07:27:50;15.50;83.80
51739;DHT22;37815;52.692;6.226;2023-05-20T07:32:51;15.50;83.80
51739;DHT22;37815;52.692;6.226;2023-05-20T07:37:51;15.60;83.80
51739;DHT22;37815;52.692;6.226;2023-05-20T07:42:52;15.60;83.80
51739;DHT22;37815;52.692;6.226;2023-05-20T07:47:52;15.50;83.80
51739;DHT22;37815;52.692;6.226;2023-05-20T07:52:53;15.50;83.90
51739;DHT22;37815;52.692;6.226;2023-05-20T07:57:54;15.60;84.00
51739;DHT22;37815;52.692;6.226;2023-05-20T08:02:54;15.60;83.90
51739;DHT22;37815;52.692;6.226;2023-05-20T08:07:55;15.60;84.00
51739;DHT22;37815;52.692;6.226;2023-05-20T08:12:56;15.70;84.30
51739;DHT22;37815;52.692;6.226;2023-05-20T08:17:56;15.70;84.30
51739;DHT22;37815;52.692;6.226;2023-05-20T08:22:57;15.70;84.40
51739;DHT22;37815;52.692;6.226;2023-05-20T08:28:00;15.80;84.10
51739;DHT22;37815;52.692;6.226;2023-05-20T08:33:03;15.90;83.60
51739;DHT22;37815;52.692;6.226;2023-05-20T08:38:04;16.00;83.70
51739;DHT22;37815;52.692;6.226;2023-05-20T08:43:06;16.00;83.20
51739;DHT22;37815;52.692;6.226;2023-05-20T08:48:07;16.20;82.50
51739;DHT22;37815;52.692;6.226;2023-05-20T08:53:07;16.20;82.30
51739;DHT22;37815;52.692;6.226;2023-05-20T08:58:09;16.30;82.40
51739;DHT22;37815;52.692;6.226;2023-05-20T09:03:10;16.40;81.40
51739;DHT22;37815;52.692;6.226;2023-05-20T09:08:11;16.50;80.70
51739;DHT22;37815;52.692;6.226;2023-05-20T09:13:11;16.60;80.60
51739;DHT22;37815;52.692;6.226;2023-05-20T09:18:12;16.70;80.70
51739;DHT22;37815;52.692;6.226;2023-05-20T09:23:12;16.80;79.80
51739;DHT22;37815;52.692;6.226;2023-05-20T09:28:13;16.90;79.10
51739;DHT22;37815;52.692;6.226;2023-05-20T09:33:14;16.90;78.90
51739;DHT22;37815;52.692;6.226;2023-05-20T09:38:15;17.00;79.10
51739;DHT22;37815;52.692;6.226;2023-05-20T09:43:17;17.00;78.80
51739;DHT22;37815;52.692;6.226;2023-05-20T09:48:17;17.10;78.50
51739;DHT22;37815;52.692;6.226;2023-05-20T09:53:18;17.10;78.60
51739;DHT22;37815;52.692;6.226;2023-05-20T09:58:19;17.20;78.20
51739;DHT22;37815;52.692;6.226;2023-05-20T10:03:21;17.40;77.40
51739;DHT22;37815;52.692;6.226;2023-05-20T10:14:16;17.60;77.10
51739;DHT22;37815;52.692;6.226;2023-05-20T10:24:29;17.80;75.90
51739;DHT22;37815;52.692;6.226;2023-05-20T10:34:51;18.00;75.30
51739;DHT22;37815;52.692;6.226;2023-05-20T10:40:11;18.00;75.00
51739;DHT22;37815;52.692;6.226;2023-05-20T10:45:27;18.10;74.00
51739;DHT22;37815;52.692;6.226;2023-05-20T10:50:34;18.30;73.90
51739;DHT22;37815;52.692;6.226;2023-05-20T10:55:37;18.60;73.40
51739;DHT22;37815;52.692;6.226;2023-05-20T11:00:38;18.50;73.20
51739;DHT22;37815;52.692;6.226;2023-05-20T11:05:39;18.50;72.50
51739;DHT22;37815;52.692;6.226;2023-05-20T11:10:41;18.70;72.70
51739;DHT22;37815;52.692;6.226;2023-05-20T11:15:42;18.90;71.90
51739;DHT22;37815;52.692;6.226;2023-05-20T11:20:44;18.80;72.60
51739;DHT22;37815;52.692;6.226;2023-05-20T11:25:45;19.00;72.50
51739;DHT22;37815;52.692;6.226;2023-05-20T11:30:46;18.70;72.50
51739;DHT22;37815;52.692;6.226;2023-05-20T11:35:48;18.60;72.80
51739;DHT22;37815;52.692;6.226;2023-05-20T11:40:54;18.60;72.50
51739;DHT22;37815;52.692;6.226;2023-05-20T11:45:56;18.50;72.10
51739;DHT22;37815;52.692;6.226;2023-05-20T11:51:01;18.50;72.10
51739;DHT22;37815;52.692;6.226;2023-05-20T11:56:02;18.50;71.90
51739;DHT22;37815;52.692;6.226;2023-05-20T12:01:03;18.60;72.10
51739;DHT22;37815;52.692;6.226;2023-05-20T12:06:03;18.80;71.30
51739;DHT22;37815;52.692;6.226;2023-05-20T12:11:04;19.00;70.90
51739;DHT22;37815;52.692;6.226;2023-05-20T12:16:04;19.30;70.60
51739;DHT22;37815;52.692;6.226;2023-05-20T12:21:05;19.50;70.10
51739;DHT22;37815;52.692;6.226;2023-05-20T12:26:06;19.50;69.50
51739;DHT22;37815;52.692;6.226;2023-05-20T12:31:06;19.30;69.90
51739;DHT22;37815;52.692;6.226;2023-05-20T12:36:07;19.30;70.40
51739;DHT22;37815;52.692;6.226;2023-05-20T12:41:08;19.60;70.10
51739;DHT22;37815;52.692;6.226;2023-05-20T12:46:08;19.80;69.20
51739;DHT22;37815;52.692;6.226;2023-05-20T12:51:09;19.80;69.70
51739;DHT22;37815;52.692;6.226;2023-05-20T12:56:09;19.60;69.50
51739;DHT22;37815;52.692;6.226;2023-05-20T13:01:10;19.60;69.30
51739;DHT22;37815;52.692;6.226;2023-05-20T13:06:11;19.60;69.50
51739;DHT22;37815;52.692;6.226;2023-05-20T13:11:11;20.10;69.20
51739;DHT22;37815;52.692;6.226;2023-05-20T13:16:12;20.20;68.50
51739;DHT22;37815;52.692;6.226;2023-05-20T13:21:13;20.10;68.60
51739;DHT22;37815;52.692;6.226;2023-05-20T13:26:14;19.80;69.20
51739;DHT22;37815;52.692;6.226;2023-05-20T13:31:14;20.10;69.00
51739;DHT22;37815;52.692;6.226;2023-05-20T13:36:15;20.20;67.70
51739;DHT22;37815;52.692;6.226;2023-05-20T13:41:16;20.50;67.80
51739;DHT22;37815;52.692;6.226;2023-05-20T13:46:16;20.90;67.20
51739;DHT22;37815;52.692;6.226;2023-05-20T13:51:17;21.10;66.40
51739;DHT22;37815;52.692;6.226;2023-05-20T13:56:18;21.10;66.60
51739;DHT22;37815;52.692;6.226;2023-05-20T14:01:19;21.30;65.90
51739;DHT22;37815;52.692;6.226;2023-05-20T14:06:19;20.90;66.00
51739;DHT22;37815;52.692;6.226;2023-05-20T14:11:20;20.80;66.00
51739;DHT22;37815;52.692;6.226;2023-05-20T14:16:21;20.60;66.80
51739;DHT22;37815;52.692;6.226;2023-05-20T14:21:21;20.40;67.10
51739;DHT22;37815;52.692;6.226;2023-05-20T14:26:22;20.40;67.40
51739;DHT22;37815;52.692;6.226;2023-05-20T14:31:22;20.40;68.30
51739;DHT22;37815;52.692;6.226;2023-05-20T14:36:23;20.30;67.70
51739;DHT22;37815;52.692;6.226;2023-05-20T14:41:24;20.40;67.50
51739;DHT22;37815;52.692;6.226;2023-05-20T14:46:25;20.40;66.80
51739;DHT22;37815;52.692;6.226;2023-05-20T14:51:27;20.50;66.50
51739;DHT22;37815;52.692;6.226;2023-05-20T14:56:28;20.60;67.00
51739;DHT22;37815;52.692;6.226;2023-05-20T15:01:28;20.50;66.30
51739;DHT22;37815;52.692;6.226;2023-05-20T15:06:29;20.40;66.10
51739;DHT22;37815;52.692;6.226;2023-05-20T15:11:30;20.50;66.20
51739;DHT22;37815;52.692;6.226;2023-05-20T15:16:31;20.80;65.30
51739;DHT22;37815;52.692;6.226;2023-05-20T15:21:32;20.40;65.00
51739;DHT22;37815;52.692;6.226;2023-05-20T15:26:32;20.30;65.70
51739;DHT22;37815;52.692;6.226;2023-05-20T15:31:33;20.40;65.60
51739;DHT22;37815;52.692;6.226;2023-05-20T15:36:33;20.30;66.00
51739;DHT22;37815;52.692;6.226;2023-05-20T15:41:34;20.00;66.20
51739;DHT22;37815;52.692;6.226;2023-05-20T15:46:36;19.90;66.60
51739;DHT22;37815;52.692;6.226;2023-05-20T15:51:37;19.70;66.70
51739;DHT22;37815;52.692;6.226;2023-05-20T15:56:38;19.70;67.20
51739;DHT22;37815;52.692;6.226;2023-05-20T16:01:39;19.60;67.80
51739;DHT22;37815;52.692;6.226;2023-05-20T16:06:39;19.60;67.20
51739;DHT22;37815;52.692;6.226;2023-05-20T16:11:40;19.50;67.60
51739;DHT22;37815;52.692;6.226;2023-05-20T16:16:41;19.50;67.80
51739;DHT22;37815;52.692;6.226;2023-05-20T16:21:41;19.50;68.30
51739;DHT22;37815;52.692;6.226;2023-05-20T16:26:42;19.40;68.40
51739;DHT22;37815;52.692;6.226;2023-05-20T16:31:42;19.30;68.60
51739;DHT22;37815;52.692;6.226;2023-05-20T16:36:45;19.10;68.80
51739;DHT22;37815;52.692;6.226;2023-05-20T16:41:46;19.10;69.10
51739;DHT22;37815;52.692;6.226;2023-05-20T16:46:46;19.10;69.30
51739;DHT22;37815;52.692;6.226;2023-05-20T16:51:47;19.10;69.40
51739;DHT22;37815;52.692;6.226;2023-05-20T16:56:49;19.10;69.70
51739;DHT22;37815;52.692;6.226;2023-05-20T17:01:49;19.20;70.00
51739;DHT22;37815;52.692;6.226;2023-05-20T17:06:50;19.20;70.10
51739;DHT22;37815;52.692;6.226;2023-05-20T17:11:51;19.30;70.30
51739;DHT22;37815;52.692;6.226;2023-05-20T17:16:53;19.40;70.50
51739;DHT22;37815;52.692;6.226;2023-05-20T17:21:54;19.40;70.60
51739;DHT22;37815;52.692;6.226;2023-05-20T17:26:54;19.40;70.80
51739;DHT22;37815;52.692;6.226;2023-05-20T17:31:55;19.40;71.00
51739;DHT22;37815;52.692;6.226;2023-05-20T17:36:56;19.40;71.20
51739;DHT22;37815;52.692;6.226;2023-05-20T17:41:57;19.40;71.40
51739;DHT22;37815;52.692;6.226;2023-05-20T17:46:57;19.30;71.60
51739;DHT22;37815;52.692;6.226;2023-05-20T17:51:58;19.30;71.80
51739;DHT22;37815;52.692;6.226;2023-05-20T17:56:58;19.30;72.00
51739;DHT22;37815;52.692;6.226;2023-05-20T18:01:59;19.20;72.20
51739;DHT22;37815;52.692;6.226;2023-05-20T18:07:00;19.20;72.50
51739;DHT22;37815;52.692;6.226;2023-05-20T18:12:03;19.20;72.60
51739;DHT22;37815;52.692;6.226;2023-05-20T18:17:04;19.20;72.80
51739;DHT22;37815;52.692;6.226;2023-05-20T18:22:04;19.20;73.00
51739;DHT22;37815;52.692;6.226;2023-05-20T18:27:06;19.20;73.10
51739;DHT22;37815;52.692;6.226;2023-05-20T18:32:07;19.10;73.20
51739;DHT22;37815;52.692;6.226;2023-05-20T18:37:08;19.10;73.40
51739;DHT22;37815;52.692;6.226;2023-05-20T18:42:08;19.10;73.60
51739;DHT22;37815;52.692;6.226;2023-05-20T18:47:09;19.00;73.60
51739;DHT22;37815;52.692;6.226;2023-05-20T18:52:10;19.00;73.80
51739;DHT22;37815;52.692;6.226;2023-05-20T18:57:10;18.90;73.90
51739;DHT22;37815;52.692;6.226;2023-05-20T19:02:11;18.90;74.00
51739;DHT22;37815;52.692;6.226;2023-05-20T19:07:12;18.90;74.20
51739;DHT22;37815;52.692;6.226;2023-05-20T19:12:12;18.90;74.30
51739;DHT22;37815;52.692;6.226;2023-05-20T19:17:13;18.80;74.30
51739;DHT22;37815;52.692;6.226;2023-05-20T19:22:13;18.80;74.40
51739;DHT22;37815;52.692;6.226;2023-05-20T19:27:14;18.80;74.60
51739;DHT22;37815;52.692;6.226;2023-05-20T19:32:15;18.80;74.80
51739;DHT22;37815;52.692;6.226;2023-05-20T19:37:15;18.70;74.80
51739;DHT22;37815;52.692;6.226;2023-05-20T19:42:16;18.70;74.90
51739;DHT22;37815;52.692;6.226;2023-05-20T19:47:17;18.70;75.00
51739;DHT22;37815;52.692;6.226;2023-05-20T19:52:18;18.70;75.10
51739;DHT22;37815;52.692;6.226;2023-05-20T19:57:19;18.70;75.40
51739;DHT22;37815;52.692;6.226;2023-05-20T20:02:19;18.60;75.40
51739;DHT22;37815;52.692;6.226;2023-05-20T20:07:20;18.60;75.50
51739;DHT22;37815;52.692;6.226;2023-05-20T20:12:21;18.60;75.60
51739;DHT22;37815;52.692;6.226;2023-05-20T20:17:21;18.50;75.70
51739;DHT22;37815;52.692;6.226;2023-05-20T20:22:22;18.50;75.80
51739;DHT22;37815;52.692;6.226;2023-05-20T20:27:23;18.50;76.00
51739;DHT22;37815;52.692;6.226;2023-05-20T20:32:24;18.50;76.00
51739;DHT22;37815;52.692;6.226;2023-05-20T20:37:25;18.50;76.10
51739;DHT22;37815;52.692;6.226;2023-05-20T20:42:26;18.30;76.00
51739;DHT22;37815;52.692;6.226;2023-05-20T20:47:27;18.40;76.20
51739;DHT22;37815;52.692;6.226;2023-05-20T20:52:28;18.40;76.30
51739;DHT22;37815;52.692;6.226;2023-05-20T20:57:29;18.40;76.40
51739;DHT22;37815;52.692;6.226;2023-05-20T21:02:31;18.40;76.50
51739;DHT22;37815;52.692;6.226;2023-05-20T21:07:31;18.30;76.50
51739;DHT22;37815;52.692;6.226;2023-05-20T21:12:32;18.30;76.60
51739;DHT22;37815;52.692;6.226;2023-05-20T21:17:33;18.30;76.70
51739;DHT22;37815;52.692;6.226;2023-05-20T21:22:34;18.20;76.70
51739;DHT22;37815;52.692;6.226;2023-05-20T21:27:34;18.20;76.80
51739;DHT22;37815;52.692;6.226;2023-05-20T21:32:36;18.20;76.90
51739;DHT22;37815;52.692;6.226;2023-05-20T21:37:36;18.20;77.00
51739;DHT22;37815;52.692;6.226;2023-05-20T21:42:37;18.20;77.10
51739;DHT22;37815;52.692;6.226;2023-05-20T21:47:38;18.20;77.20
51739;DHT22;37815;52.692;6.226;2023-05-20T21:52:38;18.10;77.20
51739;DHT22;37815;52.692;6.226;2023-05-20T21:57:39;18.10;77.30
51739;DHT22;37815;52.692;6.226;2023-05-20T22:02:40;18.10;77.30
51739;DHT22;37815;52.692;6.226;2023-05-20T22:07:40;18.10;77.40
51739;DHT22;37815;52.692;6.226;2023-05-20T22:12:43;18.10;77.50
51739;DHT22;37815;52.692;6.226;2023-05-20T22:17:44;18.00;77.50
51739;DHT22;37815;52.692;6.226;2023-05-20T22:22:46;18.00;77.60
51739;DHT22;37815;52.692;6.226;2023-05-20T22:27:47;18.00;77.70
51739;DHT22;37815;52.692;6.226;2023-05-20T22:32:47;18.00;78.30
51739;DHT22;37815;52.692;6.226;2023-05-20T22:37:48;18.00;77.90
51739;DHT22;37815;52.692;6.226;2023-05-20T22:42:49;18.00;77.90
51739;DHT22;37815;52.692;6.226;2023-05-20T22:47:50;17.90;78.00
51739;DHT22;37815;52.692;6.226;2023-05-20T22:52:50;17.90;78.00
51739;DHT22;37815;52.692;6.226;2023-05-20T22:57:51;17.90;78.10
51739;DHT22;37815;52.692;6.226;2023-05-20T23:02:51;17.90;78.10
51739;DHT22;37815;52.692;6.226;2023-05-20T23:07:52;18.00;78.30
51739;DHT22;37815;52.692;6.226;2023-05-20T23:12:54;17.80;78.30
51739;DHT22;37815;52.692;6.226;2023-05-20T23:17:54;17.80;78.40
51739;DHT22;37815;52.692;6.226;2023-05-20T23:22:55;17.80;78.50
51739;DHT22;37815;52.692;6.226;2023-05-20T23:27:55;17.80;78.60
51739;DHT22;37815;52.692;6.226;2023-05-20T23:32:56;17.70;78.60
51739;DHT22;37815;52.692;6.226;2023-05-20T23:37:57;17.70;78.80
51739;DHT22;37815;52.692;6.226;2023-05-20T23:42:57;17.70;78.80
51739;DHT22;37815;52.692;6.226;2023-05-20T23:47:58;17.70;78.90
51739;DHT22;37815;52.692;6.226;2023-05-20T23:53:00;17.70;79.00
51739;DHT22;37815;52.692;6.226;2023-05-20T23:58:01;17.70;79.10
